Terminal Aerodrome Forecast
Issued by NWS Cleveland, OH

Home | Current Version | Previous Version | Graphics & Text | Print | Product List | Glossary Off
Versions: 1 2 3 4 5 6 7 8 9 10 11 12 13 14 15 16 17 18 19 20 21 22 23 24

000
FTUS41 KCLE 011600 AAA
TAFMFD
TAF AMD
KMFD 011621Z 0116/0212 19012KT P6SM SCT025
      TEMPO 0116/0118 BKN025
     FM011800 20012G20KT P6SM SCT040
      TEMPO 0123/0202 3SM TSRA OVC025CB
     FM020900 21010KT 5SM -SHRA BR OVC025=

USA.gov is the U.S. government's official web portal to all federal, state and local government web resources and services.